sensor_id;sensor_type;location;lat;lon;timestamp;temperature;humidity
5919;DHT22;2985;48.142;16.344;2023-04-24T00:01:14;14.80;99.90
5919;DHT22;2985;48.142;16.344;2023-04-24T00:06:24;14.70;99.90
5919;DHT22;2985;48.142;16.344;2023-04-24T00:11:33;14.60;99.90
5919;DHT22;2985;48.142;16.344;2023-04-24T00:16:42;14.60;99.90
5919;DHT22;2985;48.142;16.344;2023-04-24T00:21:51;14.50;99.90
5919;DHT22;2985;48.142;16.344;2023-04-24T00:27:00;14.50;99.90
5919;DHT22;2985;48.142;16.344;2023-04-24T00:32:10;14.50;99.90
5919;DHT22;2985;48.142;16.344;2023-04-24T00:37:19;14.50;99.90
5919;DHT22;2985;48.142;16.344;2023-04-24T00:42:29;14.40;99.90
5919;DHT22;2985;48.142;16.344;2023-04-24T00:47:38;14.40;99.90
5919;DHT22;2985;48.142;16.344;2023-04-24T00:52:48;14.40;99.90
5919;DHT22;2985;48.142;16.344;2023-04-24T00:57:58;14.40;99.90
5919;DHT22;2985;48.142;16.344;2023-04-24T01:03:08;14.30;99.90
5919;DHT22;2985;48.142;16.344;2023-04-24T01:08:18;14.30;99.90
5919;DHT22;2985;48.142;16.344;2023-04-24T01:13:28;14.20;99.90
5919;DHT22;2985;48.142;16.344;2023-04-24T01:18:37;14.10;99.90
5919;DHT22;2985;48.142;16.344;2023-04-24T01:23:47;14.10;99.90
5919;DHT22;2985;48.142;16.344;2023-04-24T01:28:57;13.80;99.90
5919;DHT22;2985;48.142;16.344;2023-04-24T01:34:06;13.90;99.90
5919;DHT22;2985;48.142;16.344;2023-04-24T01:39:17;13.40;99.90
5919;DHT22;2985;48.142;16.344;2023-04-24T01:44:26;13.40;99.90
5919;DHT22;2985;48.142;16.344;2023-04-24T01:49:38;13.20;99.90
5919;DHT22;2985;48.142;16.344;2023-04-24T01:54:48;13.20;99.90
5919;DHT22;2985;48.142;16.344;2023-04-24T01:59:57;13.00;99.90
5919;DHT22;2985;48.142;16.344;2023-04-24T02:05:07;12.50;99.90
5919;DHT22;2985;48.142;16.344;2023-04-24T02:15:17;12.60;99.90
5919;DHT22;2985;48.142;16.344;2023-04-24T02:20:27;12.70;99.90
5919;DHT22;2985;48.142;16.344;2023-04-24T02:25:36;12.70;99.90
5919;DHT22;2985;48.142;16.344;2023-04-24T02:30:45;12.70;99.90
5919;DHT22;2985;48.142;16.344;2023-04-24T02:35:55;12.80;99.90
5919;DHT22;2985;48.142;16.344;2023-04-24T02:41:04;12.80;99.90
5919;DHT22;2985;48.142;16.344;2023-04-24T02:46:15;12.70;99.90
5919;DHT22;2985;48.142;16.344;2023-04-24T02:51:24;12.60;99.90
5919;DHT22;2985;48.142;16.344;2023-04-24T02:56:34;12.60;99.90
5919;DHT22;2985;48.142;16.344;2023-04-24T03:01:43;12.50;99.90
5919;DHT22;2985;48.142;16.344;2023-04-24T03:06:52;12.50;99.90
5919;DHT22;2985;48.142;16.344;2023-04-24T03:12:03;12.50;99.90
5919;DHT22;2985;48.142;16.344;2023-04-24T03:17:12;12.40;99.90
5919;DHT22;2985;48.142;16.344;2023-04-24T03:22:21;12.50;99.90
5919;DHT22;2985;48.142;16.344;2023-04-24T03:27:30;12.50;99.90
5919;DHT22;2985;48.142;16.344;2023-04-24T03:32:39;12.50;99.90
5919;DHT22;2985;48.142;16.344;2023-04-24T03:37:49;12.60;99.90
5919;DHT22;2985;48.142;16.344;2023-04-24T03:42:58;12.70;99.90
5919;DHT22;2985;48.142;16.344;2023-04-24T03:48:08;12.70;99.90
5919;DHT22;2985;48.142;16.344;2023-04-24T03:53:17;12.80;99.90
5919;DHT22;2985;48.142;16.344;2023-04-24T03:58:26;12.90;99.90
5919;DHT22;2985;48.142;16.344;2023-04-24T04:03:35;13.00;99.90
5919;DHT22;2985;48.142;16.344;2023-04-24T04:08:44;13.10;99.90
5919;DHT22;2985;48.142;16.344;2023-04-24T04:13:53;13.10;99.90
5919;DHT22;2985;48.142;16.344;2023-04-24T04:19:03;13.10;99.90
5919;DHT22;2985;48.142;16.344;2023-04-24T04:24:13;13.20;99.90
5919;DHT22;2985;48.142;16.344;2023-04-24T04:29:22;13.30;99.90
5919;DHT22;2985;48.142;16.344;2023-04-24T04:34:32;13.30;99.90
5919;DHT22;2985;48.142;16.344;2023-04-24T04:39:42;13.40;99.90
5919;DHT22;2985;48.142;16.344;2023-04-24T04:44:51;13.40;99.90
5919;DHT22;2985;48.142;16.344;2023-04-24T04:50:01;13.40;99.90
5919;DHT22;2985;48.142;16.344;2023-04-24T04:55:10;13.30;99.90
5919;DHT22;2985;48.142;16.344;2023-04-24T05:00:22;13.30;99.90
5919;DHT22;2985;48.142;16.344;2023-04-24T05:05:34;13.40;99.90
5919;DHT22;2985;48.142;16.344;2023-04-24T05:10:43;13.40;99.90
5919;DHT22;2985;48.142;16.344;2023-04-24T05:15:52;13.50;99.90
5919;DHT22;2985;48.142;16.344;2023-04-24T05:21:02;13.60;99.90
5919;DHT22;2985;48.142;16.344;2023-04-24T05:26:11;13.70;99.90
5919;DHT22;2985;48.142;16.344;2023-04-24T05:31:22;13.80;99.90
5919;DHT22;2985;48.142;16.344;2023-04-24T05:36:31;14.00;99.90
5919;DHT22;2985;48.142;16.344;2023-04-24T05:41:41;14.00;99.90
5919;DHT22;2985;48.142;16.344;2023-04-24T05:46:50;14.20;99.90
5919;DHT22;2985;48.142;16.344;2023-04-24T05:52:00;14.30;99.90
5919;DHT22;2985;48.142;16.344;2023-04-24T05:57:09;14.40;99.90
5919;DHT22;2985;48.142;16.344;2023-04-24T06:02:18;14.40;99.90
5919;DHT22;2985;48.142;16.344;2023-04-24T06:07:28;14.40;99.90
5919;DHT22;2985;48.142;16.344;2023-04-24T06:12:37;14.40;99.90
5919;DHT22;2985;48.142;16.344;2023-04-24T06:17:46;14.50;99.90
5919;DHT22;2985;48.142;16.344;2023-04-24T06:22:55;14.50;99.90
5919;DHT22;2985;48.142;16.344;2023-04-24T06:28:04;14.60;99.90
5919;DHT22;2985;48.142;16.344;2023-04-24T06:33:14;14.60;99.90
5919;DHT22;2985;48.142;16.344;2023-04-24T06:38:23;14.50;99.90
5919;DHT22;2985;48.142;16.344;2023-04-24T06:43:33;14.60;99.90
5919;DHT22;2985;48.142;16.344;2023-04-24T06:48:42;14.60;99.90
5919;DHT22;2985;48.142;16.344;2023-04-24T06:53:52;14.90;99.90
5919;DHT22;2985;48.142;16.344;2023-04-24T06:59:02;14.90;99.90
5919;DHT22;2985;48.142;16.344;2023-04-24T07:04:15;14.80;99.90
5919;DHT22;2985;48.142;16.344;2023-04-24T07:09:25;14.90;99.90
5919;DHT22;2985;48.142;16.344;2023-04-24T07:14:35;14.70;99.90
5919;DHT22;2985;48.142;16.344;2023-04-24T07:19:44;14.80;99.90
5919;DHT22;2985;48.142;16.344;2023-04-24T07:24:53;14.90;99.90
5919;DHT22;2985;48.142;16.344;2023-04-24T07:30:04;14.80;99.90
5919;DHT22;2985;48.142;16.344;2023-04-24T07:35:13;14.70;99.90
5919;DHT22;2985;48.142;16.344;2023-04-24T07:40:23;14.70;99.90
5919;DHT22;2985;48.142;16.344;2023-04-24T07:45:32;14.60;99.90
5919;DHT22;2985;48.142;16.344;2023-04-24T07:50:46;14.40;99.90
5919;DHT22;2985;48.142;16.344;2023-04-24T07:55:56;14.10;99.90
5919;DHT22;2985;48.142;16.344;2023-04-24T08:01:05;14.10;99.90
5919;DHT22;2985;48.142;16.344;2023-04-24T08:06:14;14.20;99.90
5919;DHT22;2985;48.142;16.344;2023-04-24T08:11:25;14.10;99.90
5919;DHT22;2985;48.142;16.344;2023-04-24T08:16:34;14.10;99.90
5919;DHT22;2985;48.142;16.344;2023-04-24T08:21:44;14.20;99.90
5919;DHT22;2985;48.142;16.344;2023-04-24T08:26:53;14.10;99.90
5919;DHT22;2985;48.142;16.344;2023-04-24T08:32:03;14.10;99.90
5919;DHT22;2985;48.142;16.344;2023-04-24T08:37:12;13.90;99.90
5919;DHT22;2985;48.142;16.344;2023-04-24T08:42:22;13.20;99.90
5919;DHT22;2985;48.142;16.344;2023-04-24T08:47:33;12.90;99.90
5919;DHT22;2985;48.142;16.344;2023-04-24T08:52:42;12.90;99.90
5919;DHT22;2985;48.142;16.344;2023-04-24T08:57:52;12.90;99.90
5919;DHT22;2985;48.142;16.344;2023-04-24T09:03:04;12.70;99.90
5919;DHT22;2985;48.142;16.344;2023-04-24T09:08:17;12.80;99.90
5919;DHT22;2985;48.142;16.344;2023-04-24T09:13:27;12.80;99.90
5919;DHT22;2985;48.142;16.344;2023-04-24T09:18:36;12.80;99.90
5919;DHT22;2985;48.142;16.344;2023-04-24T09:23:46;12.80;99.90
5919;DHT22;2985;48.142;16.344;2023-04-24T09:28:55;12.80;99.90
5919;DHT22;2985;48.142;16.344;2023-04-24T09:34:05;12.80;99.90
5919;DHT22;2985;48.142;16.344;2023-04-24T09:39:18;12.70;99.90
5919;DHT22;2985;48.142;16.344;2023-04-24T09:44:29;12.70;99.90
5919;DHT22;2985;48.142;16.344;2023-04-24T09:49:39;12.80;99.90
5919;DHT22;2985;48.142;16.344;2023-04-24T09:54:53;12.80;99.90
5919;DHT22;2985;48.142;16.344;2023-04-24T10:00:04;12.80;99.90
5919;DHT22;2985;48.142;16.344;2023-04-24T10:05:13;12.90;99.90
5919;DHT22;2985;48.142;16.344;2023-04-24T10:10:24;12.90;99.90
5919;DHT22;2985;48.142;16.344;2023-04-24T10:15:34;13.10;99.90
5919;DHT22;2985;48.142;16.344;2023-04-24T10:20:44;12.90;99.90
5919;DHT22;2985;48.142;16.344;2023-04-24T10:25:53;13.00;99.90
5919;DHT22;2985;48.142;16.344;2023-04-24T10:31:03;13.00;99.90
5919;DHT22;2985;48.142;16.344;2023-04-24T10:36:14;12.90;99.90
5919;DHT22;2985;48.142;16.344;2023-04-24T10:41:25;12.90;99.90
5919;DHT22;2985;48.142;16.344;2023-04-24T10:46:36;12.90;99.90
5919;DHT22;2985;48.142;16.344;2023-04-24T10:51:48;13.00;99.90
5919;DHT22;2985;48.142;16.344;2023-04-24T10:57:30;13.10;99.90
5919;DHT22;2985;48.142;16.344;2023-04-24T11:02:40;13.00;99.90
5919;DHT22;2985;48.142;16.344;2023-04-24T11:08:14;13.00;99.90
5919;DHT22;2985;48.142;16.344;2023-04-24T11:13:27;13.10;99.90
5919;DHT22;2985;48.142;16.344;2023-04-24T11:18:38;13.00;99.90
5919;DHT22;2985;48.142;16.344;2023-04-24T11:23:48;13.10;99.90
5919;DHT22;2985;48.142;16.344;2023-04-24T11:29:07;13.00;99.90
5919;DHT22;2985;48.142;16.344;2023-04-24T11:34:17;12.80;99.90
5919;DHT22;2985;48.142;16.344;2023-04-24T11:39:27;12.90;99.90
5919;DHT22;2985;48.142;16.344;2023-04-24T11:44:36;12.80;99.90
5919;DHT22;2985;48.142;16.344;2023-04-24T11:49:50;12.60;99.90
5919;DHT22;2985;48.142;16.344;2023-04-24T11:55:00;12.60;99.90
5919;DHT22;2985;48.142;16.344;2023-04-24T12:00:25;12.80;99.90
5919;DHT22;2985;48.142;16.344;2023-04-24T12:05:35;13.00;99.90
5919;DHT22;2985;48.142;16.344;2023-04-24T12:10:51;12.90;99.90
5919;DHT22;2985;48.142;16.344;2023-04-24T12:16:04;13.00;99.90
5919;DHT22;2985;48.142;16.344;2023-04-24T12:21:22;13.30;99.90
5919;DHT22;2985;48.142;16.344;2023-04-24T12:26:31;13.40;99.90
5919;DHT22;2985;48.142;16.344;2023-04-24T12:31:40;13.60;99.90
5919;DHT22;2985;48.142;16.344;2023-04-24T12:36:50;13.50;99.90
5919;DHT22;2985;48.142;16.344;2023-04-24T12:41:59;13.50;99.90
5919;DHT22;2985;48.142;16.344;2023-04-24T12:47:10;13.90;99.90
5919;DHT22;2985;48.142;16.344;2023-04-24T12:52:19;13.80;99.90
5919;DHT22;2985;48.142;16.344;2023-04-24T12:57:30;13.80;99.90
5919;DHT22;2985;48.142;16.344;2023-04-24T13:02:39;13.80;99.90
5919;DHT22;2985;48.142;16.344;2023-04-24T13:07:49;13.70;99.90
5919;DHT22;2985;48.142;16.344;2023-04-24T13:12:58;13.80;99.90
5919;DHT22;2985;48.142;16.344;2023-04-24T13:18:08;13.80;99.90
5919;DHT22;2985;48.142;16.344;2023-04-24T13:23:17;14.00;99.90
5919;DHT22;2985;48.142;16.344;2023-04-24T13:28:27;14.00;99.90
5919;DHT22;2985;48.142;16.344;2023-04-24T13:33:37;14.10;99.90
5919;DHT22;2985;48.142;16.344;2023-04-24T13:38:46;14.30;99.90
5919;DHT22;2985;48.142;16.344;2023-04-24T13:43:55;14.30;99.90
5919;DHT22;2985;48.142;16.344;2023-04-24T13:49:05;14.40;99.90
5919;DHT22;2985;48.142;16.344;2023-04-24T13:54:14;14.20;99.90
5919;DHT22;2985;48.142;16.344;2023-04-24T13:59:23;14.10;99.90
5919;DHT22;2985;48.142;16.344;2023-04-24T14:04:32;14.10;99.90
5919;DHT22;2985;48.142;16.344;2023-04-24T14:09:42;14.00;99.90
5919;DHT22;2985;48.142;16.344;2023-04-24T14:14:50;13.90;99.90
5919;DHT22;2985;48.142;16.344;2023-04-24T14:20:00;13.90;99.90
5919;DHT22;2985;48.142;16.344;2023-04-24T14:25:09;13.80;99.90
5919;DHT22;2985;48.142;16.344;2023-04-24T14:30:19;13.70;99.90
5919;DHT22;2985;48.142;16.344;2023-04-24T14:35:29;13.60;99.90
5919;DHT22;2985;48.142;16.344;2023-04-24T14:40:40;13.60;99.90
5919;DHT22;2985;48.142;16.344;2023-04-24T14:45:50;13.50;99.90
5919;DHT22;2985;48.142;16.344;2023-04-24T14:50:59;13.30;99.90
5919;DHT22;2985;48.142;16.344;2023-04-24T14:56:08;13.40;99.90
5919;DHT22;2985;48.142;16.344;2023-04-24T15:01:17;13.20;99.90
5919;DHT22;2985;48.142;16.344;2023-04-24T15:06:27;13.10;99.90
5919;DHT22;2985;48.142;16.344;2023-04-24T15:11:36;13.00;99.90
5919;DHT22;2985;48.142;16.344;2023-04-24T15:16:45;13.20;99.90
5919;DHT22;2985;48.142;16.344;2023-04-24T15:21:55;13.00;99.90
5919;DHT22;2985;48.142;16.344;2023-04-24T15:27:04;13.00;99.90
5919;DHT22;2985;48.142;16.344;2023-04-24T15:32:13;12.80;99.90
5919;DHT22;2985;48.142;16.344;2023-04-24T15:37:22;12.80;99.90
5919;DHT22;2985;48.142;16.344;2023-04-24T15:42:32;12.60;99.90
5919;DHT22;2985;48.142;16.344;2023-04-24T15:47:41;12.20;99.90
5919;DHT22;2985;48.142;16.344;2023-04-24T15:52:50;12.00;99.90
5919;DHT22;2985;48.142;16.344;2023-04-24T15:58:00;11.60;99.90
5919;DHT22;2985;48.142;16.344;2023-04-24T16:03:10;11.30;99.90
5919;DHT22;2985;48.142;16.344;2023-04-24T16:08:20;11.30;99.90
5919;DHT22;2985;48.142;16.344;2023-04-24T16:13:30;11.20;99.90
5919;DHT22;2985;48.142;16.344;2023-04-24T16:18:42;11.10;99.90
5919;DHT22;2985;48.142;16.344;2023-04-24T16:23:51;11.10;99.90
5919;DHT22;2985;48.142;16.344;2023-04-24T16:29:01;11.10;99.90
5919;DHT22;2985;48.142;16.344;2023-04-24T16:34:10;11.00;99.90
5919;DHT22;2985;48.142;16.344;2023-04-24T16:39:20;11.00;99.90
5919;DHT22;2985;48.142;16.344;2023-04-24T16:44:30;11.00;99.90
5919;DHT22;2985;48.142;16.344;2023-04-24T16:49:40;11.00;99.90
5919;DHT22;2985;48.142;16.344;2023-04-24T16:54:50;11.00;99.90
5919;DHT22;2985;48.142;16.344;2023-04-24T16:59:59;11.00;99.90
5919;DHT22;2985;48.142;16.344;2023-04-24T17:05:08;11.10;99.90
5919;DHT22;2985;48.142;16.344;2023-04-24T17:10:18;11.10;99.90
5919;DHT22;2985;48.142;16.344;2023-04-24T17:15:27;11.10;99.90
5919;DHT22;2985;48.142;16.344;2023-04-24T17:20:37;11.10;99.90
5919;DHT22;2985;48.142;16.344;2023-04-24T17:25:46;11.10;99.90
5919;DHT22;2985;48.142;16.344;2023-04-24T17:30:56;11.10;99.90
5919;DHT22;2985;48.142;16.344;2023-04-24T17:36:08;11.10;99.90
5919;DHT22;2985;48.142;16.344;2023-04-24T17:41:18;11.10;99.90
5919;DHT22;2985;48.142;16.344;2023-04-24T17:46:27;11.10;99.90
5919;DHT22;2985;48.142;16.344;2023-04-24T17:51:37;11.20;99.90
5919;DHT22;2985;48.142;16.344;2023-04-24T17:56:46;11.20;99.90
5919;DHT22;2985;48.142;16.344;2023-04-24T18:01:56;11.30;99.90
5919;DHT22;2985;48.142;16.344;2023-04-24T18:07:06;11.40;99.90
5919;DHT22;2985;48.142;16.344;2023-04-24T18:12:16;11.40;99.90
5919;DHT22;2985;48.142;16.344;2023-04-24T18:17:25;11.30;99.90
5919;DHT22;2985;48.142;16.344;2023-04-24T18:22:35;11.30;99.90
5919;DHT22;2985;48.142;16.344;2023-04-24T18:27:45;11.20;99.90
5919;DHT22;2985;48.142;16.344;2023-04-24T18:32:55;11.20;99.90
5919;DHT22;2985;48.142;16.344;2023-04-24T18:38:05;11.20;99.90
5919;DHT22;2985;48.142;16.344;2023-04-24T18:43:14;11.20;99.90
5919;DHT22;2985;48.142;16.344;2023-04-24T18:48:24;11.30;99.90
5919;DHT22;2985;48.142;16.344;2023-04-24T18:53:36;11.30;99.90
5919;DHT22;2985;48.142;16.344;2023-04-24T18:58:46;11.30;99.90
5919;DHT22;2985;48.142;16.344;2023-04-24T19:03:56;11.30;99.90
5919;DHT22;2985;48.142;16.344;2023-04-24T19:09:06;11.40;99.90
5919;DHT22;2985;48.142;16.344;2023-04-24T19:14:16;11.50;99.90
5919;DHT22;2985;48.142;16.344;2023-04-24T19:19:25;11.50;99.90
5919;DHT22;2985;48.142;16.344;2023-04-24T19:24:36;11.50;99.90
5919;DHT22;2985;48.142;16.344;2023-04-24T19:29:46;11.50;99.90
5919;DHT22;2985;48.142;16.344;2023-04-24T19:34:56;11.50;99.90
5919;DHT22;2985;48.142;16.344;2023-04-24T19:40:06;11.40;99.90
5919;DHT22;2985;48.142;16.344;2023-04-24T19:45:16;11.40;99.90
5919;DHT22;2985;48.142;16.344;2023-04-24T19:50:25;11.40;99.90
5919;DHT22;2985;48.142;16.344;2023-04-24T19:55:35;11.40;99.90
5919;DHT22;2985;48.142;16.344;2023-04-24T20:00:45;11.40;99.90
5919;DHT22;2985;48.142;16.344;2023-04-24T20:05:55;11.40;99.90
5919;DHT22;2985;48.142;16.344;2023-04-24T20:11:05;11.40;99.90
5919;DHT22;2985;48.142;16.344;2023-04-24T20:16:14;11.50;99.90
5919;DHT22;2985;48.142;16.344;2023-04-24T20:21:24;11.40;99.90
5919;DHT22;2985;48.142;16.344;2023-04-24T20:26:34;11.40;99.90
5919;DHT22;2985;48.142;16.344;2023-04-24T20:31:46;11.40;99.90
5919;DHT22;2985;48.142;16.344;2023-04-24T20:36:56;11.40;99.90
5919;DHT22;2985;48.142;16.344;2023-04-24T20:42:07;11.40;99.90
5919;DHT22;2985;48.142;16.344;2023-04-24T20:47:18;11.40;99.90
5919;DHT22;2985;48.142;16.344;2023-04-24T20:52:27;11.40;99.90
5919;DHT22;2985;48.142;16.344;2023-04-24T20:57:37;11.50;99.90
5919;DHT22;2985;48.142;16.344;2023-04-24T21:02:47;11.50;99.90
5919;DHT22;2985;48.142;16.344;2023-04-24T21:07:56;11.40;99.90
5919;DHT22;2985;48.142;16.344;2023-04-24T21:13:05;11.50;99.90
5919;DHT22;2985;48.142;16.344;2023-04-24T21:18:15;11.50;99.90
5919;DHT22;2985;48.142;16.344;2023-04-24T21:23:25;11.40;99.90
5919;DHT22;2985;48.142;16.344;2023-04-24T21:28:35;11.50;99.90
5919;DHT22;2985;48.142;16.344;2023-04-24T21:33:44;11.50;99.90
5919;DHT22;2985;48.142;16.344;2023-04-24T21:38:53;11.60;99.90
5919;DHT22;2985;48.142;16.344;2023-04-24T21:44:04;11.60;99.90
5919;DHT22;2985;48.142;16.344;2023-04-24T21:49:13;11.50;99.90
5919;DHT22;2985;48.142;16.344;2023-04-24T21:54:22;11.50;99.90
5919;DHT22;2985;48.142;16.344;2023-04-24T21:59:33;11.50;99.90
5919;DHT22;2985;48.142;16.344;2023-04-24T22:04:42;11.50;99.90
5919;DHT22;2985;48.142;16.344;2023-04-24T22:09:52;11.60;99.90
5919;DHT22;2985;48.142;16.344;2023-04-24T22:15:01;11.60;99.90
5919;DHT22;2985;48.142;16.344;2023-04-24T22:20:10;11.60;99.90
5919;DHT22;2985;48.142;16.344;2023-04-24T22:25:19;11.60;99.90
5919;DHT22;2985;48.142;16.344;2023-04-24T22:30:29;11.60;99.90
5919;DHT22;2985;48.142;16.344;2023-04-24T22:35:38;11.60;99.90
